sensor_id;sensor_type;location;lat;lon;timestamp;P1;durP1;ratioP1;P2;durP2;ratioP2
6926;SDS011;3503;50.07605000;8.86719200;2023-06-22T00:03:38;11.50;;;7.50;;
6926;SDS011;3503;50.07605000;8.86719200;2023-06-22T00:18:41;8.90;;;6.70;;
6926;SDS011;3503;50.07605000;8.86719200;2023-06-22T00:33:48;11.40;;;7.47;;
6926;SDS011;3503;50.07605000;8.86719200;2023-06-22T00:48:52;11.03;;;8.03;;
6926;SDS011;3503;50.07605000;8.86719200;2023-06-22T01:03:58;12.90;;;8.27;;
6926;SDS011;3503;50.07605000;8.86719200;2023-06-22T01:19:05;9.60;;;7.63;;
6926;SDS011;3503;50.07605000;8.86719200;2023-06-22T01:34:17;12.03;;;7.87;;
6926;SDS011;3503;50.07605000;8.86719200;2023-06-22T01:49:21;10.90;;;8.70;;
6926;SDS011;3503;50.07605000;8.86719200;2023-06-22T02:04:26;14.07;;;9.90;;
6926;SDS011;3503;50.07605000;8.86719200;2023-06-22T02:19:30;14.00;;;9.50;;
6926;SDS011;3503;50.07605000;8.86719200;2023-06-22T02:34:34;14.63;;;9.30;;
6926;SDS011;3503;50.07605000;8.86719200;2023-06-22T02:49:38;12.70;;;9.80;;
6926;SDS011;3503;50.07605000;8.86719200;2023-06-22T03:04:40;14.30;;;8.70;;
6926;SDS011;3503;50.07605000;8.86719200;2023-06-22T03:19:44;15.50;;;9.60;;
6926;SDS011;3503;50.07605000;8.86719200;2023-06-22T03:34:47;15.40;;;10.50;;
6926;SDS011;3503;50.07605000;8.86719200;2023-06-22T03:49:50;13.13;;;9.33;;
6926;SDS011;3503;50.07605000;8.86719200;2023-06-22T04:04:56;17.30;;;12.57;;
6926;SDS011;3503;50.07605000;8.86719200;2023-06-22T04:19:59;16.57;;;11.10;;
6926;SDS011;3503;50.07605000;8.86719200;2023-06-22T04:35:01;17.23;;;10.40;;
6926;SDS011;3503;50.07605000;8.86719200;2023-06-22T04:50:06;18.83;;;11.47;;
6926;SDS011;3503;50.07605000;8.86719200;2023-06-22T05:05:09;17.27;;;12.93;;
6926;SDS011;3503;50.07605000;8.86719200;2023-06-22T05:20:14;14.00;;;10.53;;
6926;SDS011;3503;50.07605000;8.86719200;2023-06-22T05:35:19;19.17;;;12.63;;
6926;SDS011;3503;50.07605000;8.86719200;2023-06-22T05:50:23;18.60;;;10.83;;
6926;SDS011;3503;50.07605000;8.86719200;2023-06-22T06:05:25;15.23;;;9.27;;
6926;SDS011;3503;50.07605000;8.86719200;2023-06-22T06:20:28;18.40;;;9.80;;
6926;SDS011;3503;50.07605000;8.86719200;2023-06-22T06:35:31;21.67;;;10.80;;
6926;SDS011;3503;50.07605000;8.86719200;2023-06-22T06:50:34;12.67;;;9.00;;
6926;SDS011;3503;50.07605000;8.86719200;2023-06-22T07:05:37;16.40;;;11.00;;
6926;SDS011;3503;50.07605000;8.86719200;2023-06-22T07:20:40;11.67;;;8.10;;
6926;SDS011;3503;50.07605000;8.86719200;2023-06-22T07:35:42;11.90;;;9.10;;
6926;SDS011;3503;50.07605000;8.86719200;2023-06-22T07:50:46;13.30;;;9.27;;
6926;SDS011;3503;50.07605000;8.86719200;2023-06-22T08:05:48;12.83;;;8.70;;
6926;SDS011;3503;50.07605000;8.86719200;2023-06-22T08:20:51;16.33;;;9.00;;
6926;SDS011;3503;50.07605000;8.86719200;2023-06-22T08:35:54;12.90;;;8.10;;
6926;SDS011;3503;50.07605000;8.86719200;2023-06-22T08:50:57;12.20;;;8.07;;
6926;SDS011;3503;50.07605000;8.86719200;2023-06-22T09:06:00;8.60;;;6.20;;
6926;SDS011;3503;50.07605000;8.86719200;2023-06-22T09:21:02;7.23;;;5.97;;
6926;SDS011;3503;50.07605000;8.86719200;2023-06-22T09:36:06;10.77;;;6.67;;
6926;SDS011;3503;50.07605000;8.86719200;2023-06-22T09:51:09;7.73;;;6.10;;
6926;SDS011;3503;50.07605000;8.86719200;2023-06-22T10:06:12;6.90;;;6.20;;
6926;SDS011;3503;50.07605000;8.86719200;2023-06-22T10:21:15;14.60;;;6.70;;
6926;SDS011;3503;50.07605000;8.86719200;2023-06-22T10:36:18;7.40;;;5.40;;
6926;SDS011;3503;50.07605000;8.86719200;2023-06-22T10:51:21;6.80;;;6.10;;
6926;SDS011;3503;50.07605000;8.86719200;2023-06-22T11:06:23;13.83;;;6.60;;
6926;SDS011;3503;50.07605000;8.86719200;2023-06-22T11:21:26;11.63;;;6.60;;
6926;SDS011;3503;50.07605000;8.86719200;2023-06-22T11:36:29;14.13;;;7.07;;
6926;SDS011;3503;50.07605000;8.86719200;2023-06-22T11:51:34;10.33;;;6.50;;
6926;SDS011;3503;50.07605000;8.86719200;2023-06-22T12:06:37;10.53;;;7.00;;
6926;SDS011;3503;50.07605000;8.86719200;2023-06-22T12:21:43;11.13;;;6.70;;
6926;SDS011;3503;50.07605000;8.86719200;2023-06-22T12:36:47;14.73;;;6.43;;
6926;SDS011;3503;50.07605000;8.86719200;2023-06-22T12:51:51;11.80;;;7.40;;
6926;SDS011;3503;50.07605000;8.86719200;2023-06-22T13:06:54;13.47;;;6.60;;
6926;SDS011;3503;50.07605000;8.86719200;2023-06-22T13:21:56;9.37;;;5.73;;
6926;SDS011;3503;50.07605000;8.86719200;2023-06-22T13:36:59;10.00;;;6.43;;
6926;SDS011;3503;50.07605000;8.86719200;2023-06-22T13:52:02;12.43;;;7.00;;
6926;SDS011;3503;50.07605000;8.86719200;2023-06-22T14:07:05;15.87;;;5.67;;
6926;SDS011;3503;50.07605000;8.86719200;2023-06-22T14:22:08;11.27;;;6.50;;
6926;SDS011;3503;50.07605000;8.86719200;2023-06-22T14:37:11;11.50;;;5.97;;
6926;SDS011;3503;50.07605000;8.86719200;2023-06-22T14:52:14;11.53;;;5.63;;
6926;SDS011;3503;50.07605000;8.86719200;2023-06-22T15:07:17;12.23;;;4.97;;
6926;SDS011;3503;50.07605000;8.86719200;2023-06-22T15:22:20;7.53;;;4.10;;
6926;SDS011;3503;50.07605000;8.86719200;2023-06-22T15:37:23;8.73;;;4.90;;
6926;SDS011;3503;50.07605000;8.86719200;2023-06-22T15:52:26;8.07;;;3.90;;
6926;SDS011;3503;50.07605000;8.86719200;2023-06-22T16:07:29;10.20;;;4.07;;
6926;SDS011;3503;50.07605000;8.86719200;2023-06-22T16:22:31;9.27;;;4.93;;
6926;SDS011;3503;50.07605000;8.86719200;2023-06-22T16:37:34;7.57;;;3.30;;
6926;SDS011;3503;50.07605000;8.86719200;2023-06-22T16:52:37;8.20;;;2.57;;
6926;SDS011;3503;50.07605000;8.86719200;2023-06-22T17:07:40;7.90;;;4.50;;
6926;SDS011;3503;50.07605000;8.86719200;2023-06-22T17:22:48;7.00;;;3.33;;
6926;SDS011;3503;50.07605000;8.86719200;2023-06-22T17:37:53;9.40;;;3.83;;
6926;SDS011;3503;50.07605000;8.86719200;2023-06-22T17:52:56;7.37;;;2.93;;
6926;SDS011;3503;50.07605000;8.86719200;2023-06-22T18:07:59;10.83;;;3.20;;
6926;SDS011;3503;50.07605000;8.86719200;2023-06-22T18:23:03;11.07;;;2.80;;
6926;SDS011;3503;50.07605000;8.86719200;2023-06-22T18:38:06;8.33;;;2.87;;
6926;SDS011;3503;50.07605000;8.86719200;2023-06-22T18:53:15;10.17;;;3.20;;
6926;SDS011;3503;50.07605000;8.86719200;2023-06-22T19:08:19;16.00;;;6.43;;
6926;SDS011;3503;50.07605000;8.86719200;2023-06-22T19:23:24;10.90;;;3.63;;
6926;SDS011;3503;50.07605000;8.86719200;2023-06-22T19:38:27;7.70;;;4.03;;
6926;SDS011;3503;50.07605000;8.86719200;2023-06-22T19:53:31;10.37;;;3.30;;
6926;SDS011;3503;50.07605000;8.86719200;2023-06-22T20:08:42;10.07;;;3.70;;
6926;SDS011;3503;50.07605000;8.86719200;2023-06-22T20:23:45;6.70;;;3.00;;
6926;SDS011;3503;50.07605000;8.86719200;2023-06-22T20:38:48;11.13;;;4.60;;
6926;SDS011;3503;50.07605000;8.86719200;2023-06-22T20:53:51;4.40;;;1.40;;
6926;SDS011;3503;50.07605000;8.86719200;2023-06-22T21:08:54;4.33;;;1.20;;
6926;SDS011;3503;50.07605000;8.86719200;2023-06-22T21:23:57;2.30;;;0.60;;
6926;SDS011;3503;50.07605000;8.86719200;2023-06-22T21:39:01;5.10;;;0.53;;
6926;SDS011;3503;50.07605000;8.86719200;2023-06-22T21:54:04;4.63;;;0.50;;
6926;SDS011;3503;50.07605000;8.86719200;2023-06-22T22:09:07;2.60;;;0.63;;
6926;SDS011;3503;50.07605000;8.86719200;2023-06-22T22:24:10;2.03;;;0.27;;
6926;SDS011;3503;50.07605000;8.86719200;2023-06-22T22:39:13;3.30;;;0.30;;
6926;SDS011;3503;50.07605000;8.86719200;2023-06-22T22:54:23;3.30;;;0.50;;
6926;SDS011;3503;50.07605000;8.86719200;2023-06-22T23:09:26;1.63;;;0.80;;
6926;SDS011;3503;50.07605000;8.86719200;2023-06-22T23:24:29;1.60;;;0.67;;
6926;SDS011;3503;50.07605000;8.86719200;2023-06-22T23:39:32;3.27;;;1.97;;
6926;SDS011;3503;50.07605000;8.86719200;2023-06-22T23:54:36;4.57;;;2.20;;
